createdAt,value
2019-04-30T00:02:12.430Z,30.57
2019-04-30T00:04:42.703Z,29.57
2019-04-30T00:07:10.192Z,29.10
2019-04-30T00:09:36.167Z,30.47
2019-04-30T00:12:02.913Z,29.53
2019-04-30T00:14:37.303Z,36.90
2019-04-30T00:16:56.375Z,30.03
2019-04-30T00:19:23.186Z,30.30
2019-04-30T00:21:56.952Z,26.13
2019-04-30T00:24:16.674Z,26.10
2019-04-30T00:26:45.394Z,26.87
2019-04-30T00:29:10.131Z,27.30
2019-04-30T00:31:36.890Z,26.77
2019-04-30T00:34:05.060Z,27.20
2019-04-30T00:36:33.988Z,25.93
2019-04-30T00:38:57.106Z,28.03
2019-04-30T00:41:25.539Z,26.83
2019-04-30T00:43:50.870Z,31.40
2019-04-30T00:46:24.747Z,28.90
2019-04-30T00:48:45.594Z,28.30
2019-04-30T00:51:18.144Z,28.47
2019-04-30T00:53:37.559Z,26.13
2019-04-30T00:56:05.729Z,27.47
2019-04-30T00:58:31.048Z,28.47
2019-04-30T01:01:04.903Z,27.57
2019-04-30T01:03:30.437Z,27.70
2019-04-30T01:05:57.189Z,28.30
2019-04-30T01:08:27.224Z,27.43
2019-04-30T01:10:50.650Z,28.73
2019-04-30T01:13:19.056Z,27.33
2019-04-30T01:15:48.367Z,26.93
2019-04-30T01:18:10.841Z,28.23
2019-04-30T01:20:38.666Z,28.40
2019-04-30T01:23:09.849Z,26.57
2019-04-30T01:25:31.044Z,28.73
2019-04-30T01:27:58.568Z,32.30
2019-04-30T01:30:24.592Z,34.05
2019-04-30T01:32:56.612Z,28.13
2019-04-30T01:35:19.126Z,27.50
2019-04-30T01:37:44.834Z,26.87
2019-04-30T01:40:13.869Z,27.80
2019-04-30T01:42:41.131Z,27.80
2019-04-30T01:45:05.302Z,29.77
2019-04-30T01:47:32.062Z,28.87
2019-04-30T01:50:01.008Z,30.63
2019-04-30T01:52:31.103Z,29.90
2019-04-30T01:54:54.404Z,30.27
2019-04-30T01:57:44.634Z,30.20
2019-04-30T02:00:16.705Z,28.60
2019-04-30T02:02:43.472Z,29.23
2019-04-30T02:05:10.194Z,29.63
2019-04-30T02:07:38.799Z,30.30
2019-04-30T02:10:03.783Z,30.67
2019-04-30T02:12:30.530Z,30.83
2019-04-30T02:14:59.508Z,30.77
2019-04-30T02:17:24.074Z,30.10
2019-04-30T02:19:56.639Z,29.20
2019-04-30T02:22:18.956Z,30.30
2019-04-30T02:24:44.769Z,30.10
2019-04-30T02:27:11.518Z,29.63
2019-04-30T02:29:39.726Z,37.03
2019-04-30T02:32:04.992Z,32.60
2019-04-30T02:34:42.222Z,30.07
2019-04-30T02:37:09.945Z,28.60
2019-04-30T02:39:36.482Z,31.00
2019-04-30T02:42:03.227Z,29.47
2019-04-30T02:44:30.183Z,31.37
2019-04-30T02:46:56.939Z,29.50
2019-04-30T02:49:23.723Z,30.90
2019-04-30T02:51:50.624Z,30.47
2019-04-30T02:54:20.304Z,30.60
2019-04-30T02:56:50.456Z,31.00
2019-04-30T02:59:14.907Z,31.07
2019-04-30T03:01:41.667Z,31.40
2019-04-30T03:04:09.896Z,31.03
2019-04-30T03:06:35.375Z,29.63
2019-04-30T03:09:02.174Z,31.07
2019-04-30T03:11:30.063Z,29.43
2019-04-30T03:13:55.646Z,34.63
2019-04-30T03:16:25.276Z,31.13
2019-04-30T03:18:59.564Z,30.97
2019-04-30T03:21:32.033Z,30.30
2019-04-30T03:23:57.100Z,29.60
2019-04-30T03:26:23.841Z,33.78
2019-04-30T03:28:50.602Z,30.63
2019-04-30T03:31:21.956Z,30.23
2019-04-30T03:33:44.091Z,30.40
2019-04-30T03:36:12.331Z,28.80
2019-04-30T03:38:39.644Z,29.20
2019-04-30T03:41:04.382Z,28.57
2019-04-30T03:43:31.139Z,29.47
2019-04-30T03:45:59.278Z,27.67
2019-04-30T03:48:24.728Z,27.27
2019-04-30T03:50:56.635Z,29.07
2019-04-30T03:53:20.177Z,29.90
2019-04-30T03:55:44.962Z,28.67
2019-04-30T03:58:11.718Z,31.93
2019-04-30T04:00:46.943Z,33.83
2019-04-30T04:03:13.695Z,28.07
2019-04-30T04:05:44.734Z,31.65
2019-04-30T04:08:30.887Z,29.27
2019-04-30T04:11:03.717Z,26.43
2019-04-30T04:13:33.194Z,26.90
2019-04-30T04:15:59.790Z,26.50
2019-04-30T04:18:23.922Z,24.73
2019-04-30T04:21:07.032Z,25.87
2019-04-30T04:23:19.275Z,25.13
2019-04-30T04:25:44.124Z,24.97
2019-04-30T04:28:10.859Z,26.87
2019-04-30T04:30:39.740Z,24.43
2019-04-30T04:33:04.315Z,25.50
2019-04-30T04:35:31.029Z,24.90
2019-04-30T04:38:00.218Z,26.13
2019-04-30T04:40:24.559Z,25.53
2019-04-30T04:42:51.304Z,24.10
2019-04-30T04:45:19.889Z,25.50
2019-04-30T04:47:44.799Z,25.60
2019-04-30T04:50:11.546Z,25.77
2019-04-30T04:52:39.625Z,24.67
2019-04-30T04:55:05.126Z,29.02
2019-04-30T04:57:31.863Z,26.53
2019-04-30T05:00:03.498Z,29.63
2019-04-30T05:02:32.515Z,25.90
2019-04-30T05:04:56.402Z,27.60
2019-04-30T05:07:23.126Z,25.27
2019-04-30T05:09:49.865Z,23.83
2019-04-30T05:12:18.485Z,25.93
2019-04-30T05:14:43.410Z,28.05
2019-04-30T05:17:10.153Z,25.20
2019-04-30T05:19:38.534Z,25.67
2019-04-30T05:22:03.647Z,25.30
2019-04-30T05:24:30.410Z,23.67
2019-04-30T05:26:58.678Z,24.37
2019-04-30T05:29:23.882Z,29.87
2019-04-30T05:31:50.615Z,26.73
2019-04-30T05:34:18.807Z,28.20
2019-04-30T05:36:44.091Z,24.90
2019-04-30T05:39:10.818Z,25.20
2019-04-30T05:41:38.654Z,24.90
2019-04-30T05:44:04.319Z,25.70
2019-04-30T05:46:31.057Z,29.02
2019-04-30T05:48:59.418Z,26.20
2019-04-30T05:51:24.535Z,23.37
2019-04-30T05:53:51.482Z,23.63
2019-04-30T05:56:19.297Z,21.20
2019-04-30T05:58:44.959Z,22.83
2019-04-30T06:01:11.697Z,25.48
2019-04-30T06:03:38.676Z,24.73
2019-04-30T06:06:05.171Z,22.27
2019-04-30T06:08:39.267Z,22.33
2019-04-30T06:11:09.442Z,22.93
2019-04-30T06:13:53.066Z,21.47
2019-04-30T06:16:22.077Z,21.43
2019-04-30T06:18:48.858Z,23.13
2019-04-30T06:21:15.614Z,20.93
2019-04-30T06:23:43.234Z,22.47
2019-04-30T06:26:12.496Z,19.03
2019-04-30T06:28:36.839Z,22.30
2019-04-30T06:31:03.583Z,20.50
2019-04-30T06:33:30.526Z,20.90
2019-04-30T06:35:58.914Z,20.93
2019-04-30T06:38:24.010Z,19.33
2019-04-30T06:40:50.757Z,19.67
2019-04-30T06:43:19.074Z,18.83
2019-04-30T06:45:44.672Z,20.00
2019-04-30T06:48:12.665Z,19.23
2019-04-30T06:50:39.482Z,20.00
2019-04-30T06:53:06.133Z,18.40
2019-04-30T06:55:32.870Z,18.57
2019-04-30T06:58:11.396Z,20.80
2019-04-30T07:00:35.610Z,22.65
2019-04-30T07:03:01.424Z,22.55
2019-04-30T07:05:28.641Z,20.60
2019-04-30T07:08:08.779Z,20.10
2019-04-30T07:10:29.480Z,20.10
2019-04-30T07:13:01.301Z,19.80
2019-04-30T07:15:29.607Z,19.07
2019-04-30T07:17:54.890Z,19.07
2019-04-30T07:20:21.614Z,18.87
2019-04-30T07:22:52.416Z,18.37
2019-04-30T07:25:15.082Z,19.10
2019-04-30T07:27:41.851Z,18.23
2019-04-30T07:30:10.004Z,19.60
2019-04-30T07:32:35.317Z,17.90
2019-04-30T07:35:02.083Z,18.87
2019-04-30T07:37:29.376Z,19.03
2019-04-30T07:39:55.746Z,18.80
2019-04-30T07:42:22.490Z,18.77
2019-04-30T07:44:50.240Z,19.23
2019-04-30T07:47:15.966Z,16.97
2019-04-30T07:49:51.588Z,18.33
2019-04-30T07:52:11.544Z,16.60
2019-04-30T07:54:36.522Z,18.30
2019-04-30T07:57:03.385Z,18.07
2019-04-30T07:59:30.277Z,17.10
2019-04-30T08:02:07.539Z,19.75
2019-04-30T08:04:29.623Z,18.67
2019-04-30T08:06:56.508Z,20.60
2019-04-30T08:09:23.190Z,16.97
2019-04-30T08:11:49.945Z,17.00
2019-04-30T08:14:18.498Z,16.43
2019-04-30T08:16:43.498Z,17.90
2019-04-30T08:19:10.344Z,17.93
2019-04-30T08:21:38.762Z,18.07
2019-04-30T08:24:03.942Z,18.17
2019-04-30T08:26:30.762Z,19.60
2019-04-30T08:28:59.623Z,17.87
2019-04-30T08:31:24.358Z,17.63
2019-04-30T08:33:51.102Z,19.50
2019-04-30T08:36:19.520Z,17.33
2019-04-30T08:38:44.699Z,16.90
2019-04-30T08:41:11.430Z,17.00
2019-04-30T08:43:39.408Z,18.70
2019-04-30T08:46:04.939Z,18.27
2019-04-30T08:48:45.481Z,15.40
2019-04-30T08:50:59.309Z,19.40
2019-04-30T08:53:29.471Z,17.03
2019-04-30T08:55:51.916Z,19.27
2019-04-30T08:58:20.456Z,19.10
2019-04-30T09:00:45.381Z,18.57
2019-04-30T09:03:12.210Z,17.97
2019-04-30T09:05:44.720Z,16.37
2019-04-30T09:08:11.468Z,17.37
2019-04-30T09:10:39.295Z,18.10
2019-04-30T09:13:04.945Z,16.37
2019-04-30T09:15:31.665Z,15.80
2019-04-30T09:18:05.669Z,16.63
2019-04-30T09:20:25.193Z,17.57
2019-04-30T09:22:51.945Z,19.43
2019-04-30T09:25:19.422Z,19.40
2019-04-30T09:27:45.428Z,18.63
2019-04-30T09:30:12.257Z,17.70
2019-04-30T09:32:39.161Z,17.40
2019-04-30T09:35:05.898Z,14.90
2019-04-30T09:37:32.651Z,16.77
2019-04-30T09:39:59.406Z,16.67
2019-04-30T09:42:26.183Z,15.73
2019-04-30T09:44:54.902Z,16.03
2019-04-30T09:47:20.178Z,15.93
2019-04-30T09:49:46.446Z,15.70
2019-04-30T09:52:13.195Z,14.50
2019-04-30T09:54:40.402Z,16.80
2019-04-30T09:57:06.718Z,15.87
2019-04-30T09:59:33.446Z,15.80
2019-04-30T10:02:00.194Z,16.73
2019-04-30T10:04:27.850Z,15.50
2019-04-30T10:06:53.670Z,15.63
2019-04-30T10:09:20.399Z,14.97
2019-04-30T10:11:52.026Z,16.03
2019-04-30T10:14:18.795Z,16.00
2019-04-30T10:16:52.470Z,15.37
2019-04-30T10:19:19.235Z,13.90
2019-04-30T10:21:45.935Z,13.23
2019-04-30T10:24:15.629Z,16.20
2019-04-30T10:26:39.490Z,16.40
2019-04-30T10:29:06.238Z,15.57
2019-04-30T10:31:32.996Z,14.97
2019-04-30T10:33:59.714Z,15.27
2019-04-30T10:36:26.457Z,17.23
2019-04-30T10:38:53.178Z,14.57
2019-04-30T10:41:19.917Z,13.60
2019-04-30T10:43:46.654Z,13.40
2019-04-30T10:46:13.402Z,14.80
2019-04-30T10:48:40.138Z,15.50
2019-04-30T10:51:08.906Z,12.30
2019-04-30T10:53:33.698Z,13.63
2019-04-30T10:56:00.433Z,14.00
2019-04-30T10:58:27.181Z,13.30
2019-04-30T11:00:53.959Z,15.00
2019-04-30T11:03:23.026Z,15.00
2019-04-30T11:05:48.779Z,13.23
2019-04-30T11:08:14.162Z,14.53
2019-04-30T11:10:40.898Z,12.00
2019-04-30T11:13:07.658Z,11.80
2019-04-30T11:15:34.382Z,12.20
2019-04-30T11:18:01.266Z,12.27
2019-04-30T11:20:29.687Z,12.43
2019-04-30T11:22:54.991Z,13.17
2019-04-30T11:25:21.809Z,12.33
2019-04-30T11:27:50.417Z,14.27
2019-04-30T11:30:21.298Z,14.47
2019-04-30T11:32:41.833Z,13.03
2019-04-30T11:35:08.394Z,11.53
2019-04-30T11:37:35.148Z,10.30
2019-04-30T11:40:01.875Z,10.50
2019-04-30T11:42:28.975Z,11.47
2019-04-30T11:44:55.689Z,12.30
2019-04-30T11:47:23.700Z,12.57
2019-04-30T11:49:50.427Z,13.10
2019-04-30T11:52:17.158Z,13.18
2019-04-30T11:54:51.311Z,11.60
2019-04-30T11:57:10.610Z,10.70
2019-04-30T11:59:39.449Z,14.10
2019-04-30T12:02:09.337Z,10.40
2019-04-30T12:04:36.085Z,10.77
2019-04-30T12:07:09.470Z,10.55
2019-04-30T12:09:55.821Z,11.18
2019-04-30T12:12:22.561Z,10.60
2019-04-30T12:14:49.459Z,11.97
2019-04-30T12:17:16.034Z,10.90
2019-04-30T12:19:42.784Z,10.63
2019-04-30T12:22:09.534Z,9.63
2019-04-30T12:24:36.286Z,11.67
2019-04-30T12:27:03.006Z,10.50
2019-04-30T12:29:29.746Z,9.90
2019-04-30T12:31:56.470Z,10.37
2019-04-30T12:34:23.213Z,12.77
2019-04-30T12:36:49.942Z,10.80
2019-04-30T12:39:16.684Z,8.87
2019-04-30T12:41:43.430Z,9.80
2019-04-30T12:44:10.182Z,9.70
2019-04-30T12:46:38.641Z,10.23
2019-04-30T12:49:10.217Z,10.00
2019-04-30T12:51:56.191Z,10.27
2019-04-30T12:54:28.617Z,9.90
2019-04-30T12:57:05.315Z,8.80
2019-04-30T12:59:32.053Z,10.25
2019-04-30T13:01:59.333Z,10.13
2019-04-30T13:04:25.534Z,9.43
2019-04-30T13:06:52.719Z,9.73
2019-04-30T13:09:20.318Z,9.43
2019-04-30T13:11:46.313Z,8.83
2019-04-30T13:14:12.838Z,9.60
2019-04-30T13:16:39.294Z,8.20
2019-04-30T13:19:06.026Z,8.70
2019-04-30T13:21:32.754Z,7.90
2019-04-30T13:23:59.522Z,8.60
2019-04-30T13:26:26.254Z,8.10
2019-04-30T13:28:58.576Z,7.30
2019-04-30T13:31:25.308Z,7.50
2019-04-30T13:33:54.398Z,8.03
2019-04-30T13:36:20.623Z,7.90
2019-04-30T13:38:52.311Z,8.90
2019-04-30T13:41:32.450Z,9.13
2019-04-30T13:44:04.702Z,8.73
2019-04-30T13:46:31.442Z,9.10
2019-04-30T13:48:58.158Z,8.77
2019-04-30T13:51:24.897Z,8.50
2019-04-30T13:53:51.614Z,8.10
2019-04-30T13:56:20.209Z,9.13
2019-04-30T13:58:45.094Z,8.43
2019-04-30T14:01:11.838Z,9.23
2019-04-30T14:03:43.126Z,9.50
2019-04-30T14:06:09.893Z,9.20
2019-04-30T14:08:39.721Z,7.97
2019-04-30T14:11:06.486Z,8.37
2019-04-30T14:13:33.237Z,8.90
2019-04-30T14:16:00.173Z,8.67
2019-04-30T14:18:30.851Z,9.87
2019-04-30T14:20:53.649Z,8.30
2019-04-30T14:23:20.378Z,10.00
2019-04-30T14:25:56.453Z,8.70
2019-04-30T14:28:13.866Z,9.90
2019-04-30T14:30:40.614Z,9.10
2019-04-30T14:33:09.311Z,8.43
2019-04-30T14:35:34.121Z,8.23
2019-04-30T14:38:00.855Z,9.00
2019-04-30T14:40:29.837Z,8.40
2019-04-30T14:42:59.905Z,7.80
2019-04-30T14:45:29.257Z,6.97
2019-04-30T14:48:01.462Z,7.50
2019-04-30T14:50:28.619Z,6.90
2019-04-30T14:53:05.171Z,7.13
2019-04-30T14:55:52.545Z,8.03
2019-04-30T14:58:35.613Z,7.92
2019-04-30T15:01:09.424Z,7.07
2019-04-30T15:03:35.897Z,7.70
2019-04-30T15:06:02.670Z,7.00
2019-04-30T15:08:29.399Z,7.07
2019-04-30T15:10:56.142Z,6.47
2019-04-30T15:13:22.874Z,6.67
2019-04-30T15:15:49.609Z,6.60
2019-04-30T15:18:16.346Z,7.07
2019-04-30T15:20:43.122Z,6.77
2019-04-30T15:23:21.648Z,5.40
2019-04-30T15:25:45.926Z,5.57
2019-04-30T15:28:12.661Z,5.00
2019-04-30T15:30:41.809Z,4.90
2019-04-30T15:33:12.690Z,5.17
2019-04-30T15:35:39.593Z,5.27
2019-04-30T15:38:06.553Z,4.67
2019-04-30T15:40:33.286Z,5.03
2019-04-30T15:43:02.397Z,5.53
2019-04-30T15:45:26.788Z,4.90
2019-04-30T15:47:53.533Z,4.50
2019-04-30T15:50:20.266Z,5.93
2019-04-30T15:52:48.625Z,6.20
2019-04-30T15:55:13.844Z,5.97
2019-04-30T15:57:56.049Z,5.67
2019-04-30T16:00:23.487Z,5.37
2019-04-30T16:02:57.510Z,6.27
2019-04-30T16:05:27.066Z,5.53
2019-04-30T16:07:59.502Z,6.00
2019-04-30T16:10:39.708Z,5.70
2019-04-30T16:13:09.727Z,6.20
2019-04-30T16:15:36.121Z,6.23
2019-04-30T16:18:02.938Z,6.60
2019-04-30T16:20:30.076Z,5.13
2019-04-30T16:22:56.614Z,5.83
2019-04-30T16:25:23.343Z,5.63
2019-04-30T16:27:50.161Z,5.60
2019-04-30T16:30:16.889Z,6.23
2019-04-30T16:32:43.634Z,5.97
2019-04-30T16:35:10.367Z,5.43
2019-04-30T16:37:38.756Z,5.40
2019-04-30T16:40:04.203Z,5.90
2019-04-30T16:42:30.942Z,5.20
2019-04-30T16:45:00.569Z,5.77
2019-04-30T16:47:24.439Z,5.90
2019-04-30T16:49:51.258Z,5.30
2019-04-30T16:52:18.999Z,5.70
2019-04-30T16:54:44.738Z,5.73
2019-04-30T16:57:11.497Z,5.23
2019-04-30T16:59:40.354Z,5.60
2019-04-30T17:02:08.824Z,5.40
2019-04-30T17:04:41.198Z,5.43
2019-04-30T17:07:13.570Z,6.53
2019-04-30T17:09:44.389Z,5.70
2019-04-30T17:12:22.287Z,5.30
2019-04-30T17:15:09.296Z,5.97
2019-04-30T17:17:35.402Z,6.30
2019-04-30T17:20:02.498Z,5.67
2019-04-30T17:22:31.209Z,5.43
2019-04-30T17:24:56.009Z,5.67
2019-04-30T17:27:22.754Z,6.13
2019-04-30T17:29:49.485Z,5.80
2019-04-30T17:32:16.241Z,6.60
2019-04-30T17:34:42.973Z,5.33
2019-04-30T17:37:09.727Z,5.80
2019-04-30T17:39:36.461Z,6.27
2019-04-30T17:42:03.214Z,6.00
2019-04-30T17:44:29.954Z,6.33
2019-04-30T17:46:56.678Z,6.75
2019-04-30T17:49:23.418Z,6.00
2019-04-30T17:51:50.253Z,5.33
2019-04-30T17:54:16.990Z,5.90
2019-04-30T17:56:43.769Z,5.60
2019-04-30T17:59:10.502Z,6.13
2019-04-30T18:01:39.917Z,5.60
2019-04-30T18:04:03.961Z,6.50
2019-04-30T18:06:30.700Z,5.80
2019-04-30T18:08:57.429Z,5.90
2019-04-30T18:11:24.169Z,6.77
2019-04-30T18:13:50.897Z,6.33
2019-04-30T18:16:18.749Z,6.83
2019-04-30T18:18:51.218Z,7.23
2019-04-30T18:21:25.538Z,6.60
2019-04-30T18:24:14.745Z,6.87
2019-04-30T18:26:46.967Z,8.00
2019-04-30T18:29:13.690Z,7.20
2019-04-30T18:31:40.438Z,7.20
2019-04-30T18:34:09.406Z,8.10
2019-04-30T18:36:33.906Z,6.40
2019-04-30T18:39:00.655Z,7.60
2019-04-30T18:41:27.381Z,6.37
2019-04-30T18:43:54.110Z,5.60
2019-04-30T18:46:20.844Z,6.40
2019-04-30T18:48:49.352Z,7.53
2019-04-30T18:51:30.096Z,6.93
2019-04-30T18:53:41.246Z,8.50
2019-04-30T18:56:10.521Z,8.00
2019-04-30T18:58:39.983Z,7.57
2019-04-30T19:01:01.458Z,7.57
2019-04-30T19:03:29.289Z,8.13
2019-04-30T19:05:58.693Z,7.53
2019-04-30T19:08:29.432Z,7.47
2019-04-30T19:11:16.072Z,8.50
2019-04-30T19:13:59.307Z,8.20
2019-04-30T19:16:31.477Z,7.20
2019-04-30T19:19:03.383Z,7.93
2019-04-30T19:21:30.138Z,7.23
2019-04-30T19:23:58.667Z,6.67
2019-04-30T19:26:23.652Z,6.60
2019-04-30T19:28:50.398Z,16.60
2019-04-30T19:31:17.130Z,39.30
2019-04-30T19:33:43.874Z,28.10
2019-04-30T19:36:10.682Z,23.30
2019-04-30T19:38:37.402Z,35.03
2019-04-30T19:41:04.154Z,18.37
2019-04-30T19:43:30.874Z,16.70
2019-04-30T19:45:59.252Z,12.53
2019-04-30T19:48:24.339Z,13.40
2019-04-30T19:50:51.078Z,12.37
2019-04-30T19:53:21.802Z,11.30
2019-04-30T19:55:44.558Z,9.20
2019-04-30T19:58:25.054Z,10.57
2019-04-30T20:00:38.995Z,9.53
2019-04-30T20:03:04.793Z,9.50
2019-04-30T20:05:31.671Z,9.93
2019-04-30T20:07:59.218Z,7.87
2019-04-30T20:10:25.174Z,9.30
2019-04-30T20:12:51.898Z,8.50
2019-04-30T20:15:21.756Z,9.37
2019-04-30T20:17:45.382Z,11.77
2019-04-30T20:20:12.173Z,12.87
2019-04-30T20:22:39.008Z,13.90
2019-04-30T20:25:05.662Z,12.30
2019-04-30T20:27:32.414Z,11.00
2019-04-30T20:29:59.325Z,13.15
2019-04-30T20:32:33.842Z,15.67
2019-04-30T20:34:52.611Z,16.75
2019-04-30T20:37:19.682Z,15.80
2019-04-30T20:39:52.250Z,18.40
2019-04-30T20:42:18.990Z,17.53
2019-04-30T20:44:45.742Z,16.70
2019-04-30T20:47:12.481Z,15.13
2019-04-30T20:49:41.114Z,14.17
2019-04-30T20:52:07.878Z,13.87
2019-04-30T20:54:34.606Z,13.30
2019-04-30T20:57:01.374Z,12.10
2019-04-30T20:59:28.948Z,13.50
2019-04-30T21:01:54.846Z,14.18
2019-04-30T21:04:21.577Z,13.50
2019-04-30T21:06:49.615Z,14.07
2019-04-30T21:09:15.048Z,13.20
2019-04-30T21:11:41.797Z,16.27
2019-04-30T21:14:08.963Z,15.10
2019-04-30T21:16:35.282Z,12.93
2019-04-30T21:19:02.015Z,12.73
2019-04-30T21:21:28.893Z,13.60
2019-04-30T21:23:55.570Z,12.90
2019-04-30T21:26:22.320Z,18.23
2019-04-30T21:28:49.547Z,14.77
2019-04-30T21:31:21.662Z,16.93
2019-04-30T21:33:49.271Z,27.37
2019-04-30T21:36:18.922Z,23.80
2019-04-30T21:38:45.031Z,23.73
2019-04-30T21:41:11.770Z,19.40
2019-04-30T21:43:38.514Z,17.73
2019-04-30T21:46:05.255Z,17.37
2019-04-30T21:48:31.993Z,17.90
2019-04-30T21:50:59.431Z,22.97
2019-04-30T21:53:25.882Z,24.23
2019-04-30T21:55:52.602Z,27.00
2019-04-30T21:58:20.468Z,21.23
2019-04-30T22:00:51.970Z,20.27
2019-04-30T22:03:19.705Z,19.20
2019-04-30T22:05:45.422Z,17.70
2019-04-30T22:08:12.525Z,22.13
2019-04-30T22:10:39.222Z,22.00
2019-04-30T22:13:06.011Z,18.10
2019-04-30T22:15:32.726Z,18.20
2019-04-30T22:17:59.465Z,18.83
2019-04-30T22:20:26.183Z,19.32
2019-04-30T22:22:53.078Z,21.43
2019-04-30T22:25:19.791Z,18.10
2019-04-30T22:27:46.527Z,19.17
2019-04-30T22:30:13.270Z,22.25
2019-04-30T22:32:40.002Z,21.30
2019-04-30T22:35:27.304Z,23.93
2019-04-30T22:37:54.358Z,23.87
2019-04-30T22:40:21.105Z,22.97
2019-04-30T22:42:49.543Z,22.80
2019-04-30T22:45:19.779Z,20.53
2019-04-30T22:47:46.521Z,19.90
2019-04-30T22:50:13.262Z,20.50
2019-04-30T22:52:40.004Z,21.40
2019-04-30T22:55:06.733Z,20.20
2019-04-30T22:57:33.450Z,20.47
2019-04-30T23:00:00.251Z,22.17
2019-04-30T23:02:46.610Z,20.60
2019-04-30T23:05:14.630Z,20.50
2019-04-30T23:07:41.350Z,20.97
2019-04-30T23:10:08.128Z,25.30
2019-04-30T23:12:34.831Z,25.23
2019-04-30T23:15:01.582Z,26.53
2019-04-30T23:17:28.309Z,24.80
2019-04-30T23:19:55.044Z,31.30
2019-04-30T23:22:21.773Z,28.60
2019-04-30T23:24:48.533Z,21.80
2019-04-30T23:27:15.254Z,21.27
2019-04-30T23:29:41.999Z,24.33
2019-04-30T23:32:08.721Z,22.70
2019-04-30T23:34:35.456Z,21.57
2019-04-30T23:37:02.173Z,20.40
2019-04-30T23:39:28.910Z,21.00
2019-04-30T23:41:55.634Z,20.53
2019-04-30T23:44:22.374Z,19.70
2019-04-30T23:46:49.118Z,21.77
2019-04-30T23:49:15.858Z,22.85
2019-04-30T23:51:42.578Z,23.73
2019-04-30T23:54:09.449Z,24.50
2019-04-30T23:56:36.190Z,21.83
2019-04-30T23:59:02.923Z,22.83
